Los Angeles, California
Current Conditions -  °F | °C
As of 4:47 AM on Thursday 23 Oct 2014 (Local Time) from KCQT Reporting Station
Clear Clear  
Wind Chill: 61°   Ceiling: Unl
Heat Index: 61°   Visibility: 10mi
Dew Point: 55°   Wind: 0mph
Humidity: 81%   Direction: NA
Pressure: 29.93"   Gusts: NA
Location:  34.05°N, 118.24°W
Report Text: KCQT 231147Z AUTO 00000KT 10SM CLR 16/13 A2993 RMK AO2 SLP132 T01610128 10194 20161 55009
Loading
Personal Weather Stations






























Interactive Weather Map New forecast layout! Learn more

10-Day Weather Forecast

Advertisements
Track Severe Weather on mobile